createdAt,value
2019-02-15T00:01:10.248Z,99.9
2019-02-15T00:11:15.118Z,99.9
2019-02-15T00:16:17.739Z,99.9
2019-02-15T00:21:20.046Z,99.9
2019-02-15T00:26:22.514Z,99.9
2019-02-15T00:31:24.948Z,99.9
2019-02-15T00:36:27.410Z,99.9
2019-02-15T00:41:29.891Z,99.9
2019-02-15T00:46:32.354Z,99.9
2019-02-15T00:51:34.784Z,99.9
2019-02-15T00:56:37.252Z,99.9
2019-02-15T01:01:39.744Z,99.9
2019-02-15T01:06:42.172Z,99.9
2019-02-15T01:11:44.660Z,99.9
2019-02-15T01:16:47.172Z,99.9
2019-02-15T01:21:49.540Z,99.9
2019-02-15T01:26:52.027Z,99.9
2019-02-15T01:31:54.478Z,99.9
2019-02-15T01:36:56.985Z,99.9
2019-02-15T01:41:59.386Z,99.9
2019-02-15T01:47:07.199Z,99.9
2019-02-15T01:52:04.309Z,99.9
2019-02-15T01:57:06.760Z,99.9
2019-02-15T02:02:09.205Z,99.9
2019-02-15T02:07:11.664Z,99.9
2019-02-15T02:12:14.130Z,99.9
2019-02-15T02:17:16.685Z,99.9
2019-02-15T02:22:19.028Z,99.9
2019-02-15T02:27:21.479Z,99.9
2019-02-15T02:32:23.949Z,99.9
2019-02-15T02:37:26.396Z,99.9
2019-02-15T02:42:28.865Z,99.9
2019-02-15T02:47:31.432Z,99.9
2019-02-15T02:52:33.781Z,99.9
2019-02-15T02:57:36.238Z,99.9
2019-02-15T03:02:38.734Z,99.9
2019-02-15T03:07:41.219Z,99.9
2019-02-15T03:12:43.603Z,99.9
2019-02-15T03:17:46.130Z,99.9
2019-02-15T03:22:48.526Z,99.9
2019-02-15T03:27:50.975Z,99.9
2019-02-15T03:32:53.442Z,99.9
2019-02-15T03:37:55.924Z,99.9
2019-02-15T03:42:58.514Z,99.9
2019-02-15T03:48:00.831Z,99.9
2019-02-15T03:53:03.267Z,99.9
2019-02-15T03:58:05.756Z,99.9
2019-02-15T04:03:08.198Z,99.9
2019-02-15T04:08:10.642Z,99.9
2019-02-15T04:13:13.117Z,99.9
2019-02-15T04:18:15.568Z,99.9
2019-02-15T04:23:18.136Z,99.9
2019-02-15T04:28:20.489Z,99.9
2019-02-15T04:33:22.913Z,99.9
2019-02-15T04:38:25.368Z,99.9
2019-02-15T04:43:27.867Z,99.9
2019-02-15T04:48:30.346Z,99.9
2019-02-15T04:53:32.745Z,99.9
2019-02-15T04:58:35.199Z,99.9
2019-02-15T05:03:37.705Z,99.9
2019-02-15T05:08:45.151Z,99.9
2019-02-15T05:13:42.582Z,99.9
2019-02-15T05:18:45.049Z,99.9
2019-02-15T05:23:47.661Z,99.9
2019-02-15T05:28:49.957Z,99.9
2019-02-15T05:33:52.455Z,99.9
2019-02-15T05:38:54.875Z,99.9
2019-02-15T05:43:57.326Z,99.9
2019-02-15T05:49:00.056Z,99.9
2019-02-15T05:54:02.276Z,99.9
2019-02-15T05:59:04.691Z,99.9
2019-02-15T06:04:07.164Z,99.9
2019-02-15T06:09:09.601Z,99.9
2019-02-15T06:14:12.069Z,99.9
2019-02-15T06:19:14.563Z,99.9
2019-02-15T06:24:16.982Z,99.9
2019-02-15T06:29:19.433Z,99.9
2019-02-15T06:34:21.886Z,99.9
2019-02-15T06:39:24.339Z,99.9
2019-02-15T06:44:26.805Z,99.9
2019-02-15T06:49:29.306Z,99.9
2019-02-15T06:54:31.736Z,99.9
2019-02-15T06:59:34.185Z,99.9
2019-02-15T07:04:36.630Z,99.9
2019-02-15T07:09:39.155Z,99.9
2019-02-15T07:14:41.658Z,99.9
2019-02-15T07:19:44.018Z,99.9
2019-02-15T07:24:47.241Z,99.9
2019-02-15T07:29:48.970Z,99.9
2019-02-15T07:34:51.442Z,99.9
2019-02-15T07:39:53.875Z,99.9
2019-02-15T07:44:56.306Z,99.9
2019-02-15T07:49:58.780Z,99.9
2019-02-15T07:55:01.294Z,99.9
2019-02-15T08:00:03.712Z,99.9
2019-02-15T08:05:06.164Z,99.9
2019-02-15T08:10:08.616Z,99.9
2019-02-15T08:15:11.120Z,99.9
2019-02-15T08:20:13.590Z,99.9
2019-02-15T08:25:16.019Z,99.9
2019-02-15T08:30:18.571Z,99.9
2019-02-15T08:35:21.038Z,99.9
2019-02-15T08:40:23.367Z,1
2019-02-15T08:45:25.837Z,1
2019-02-15T08:50:28.304Z,1
2019-02-15T08:55:30.750Z,1
2019-02-15T09:00:33.262Z,1
2019-02-15T09:05:35.664Z,1
2019-02-15T09:10:38.128Z,1
2019-02-15T09:15:40.771Z,1
2019-02-15T09:20:43.130Z,1
2019-02-15T09:30:48.048Z,1
2019-02-15T09:35:50.438Z,1
2019-02-15T09:40:52.900Z,1
2019-02-15T09:45:55.383Z,1
2019-02-15T09:50:57.823Z,1
2019-02-15T09:56:00.315Z,1
2019-02-15T10:01:02.758Z,1
2019-02-15T10:06:05.190Z,1
2019-02-15T10:11:07.658Z,1
2019-02-15T10:16:10.111Z,1
2019-02-15T10:21:12.571Z,1
2019-02-15T10:26:15.144Z,1
2019-02-15T10:31:17.588Z,1
2019-02-15T10:41:22.429Z,1
2019-02-15T10:46:24.897Z,1
2019-02-15T10:51:27.391Z,1
2019-02-15T10:56:29.827Z,1
2019-02-15T11:01:32.440Z,1
2019-02-15T11:06:34.752Z,1
2019-02-15T11:11:37.172Z,1
2019-02-15T11:16:46.928Z,1
2019-02-15T11:21:42.155Z,1
2019-02-15T11:26:44.586Z,1
2019-02-15T11:31:47.024Z,1
2019-02-15T11:36:49.473Z,1
2019-02-15T11:41:51.967Z,1
2019-02-15T11:46:56.652Z,1
2019-02-15T11:51:56.974Z,1
2019-02-15T11:56:59.327Z,1
2019-02-15T12:02:05.986Z,1
2019-02-15T12:07:04.280Z,1
2019-02-15T12:12:10.563Z,1
2019-02-15T12:17:09.173Z,1
2019-02-15T12:22:11.623Z,1
2019-02-15T12:27:14.143Z,1
2019-02-15T12:32:16.805Z,1
2019-02-15T12:37:19.085Z,1
2019-02-15T12:42:21.503Z,1
2019-02-15T12:47:23.926Z,1
2019-02-15T12:52:26.384Z,1
2019-02-15T12:57:28.846Z,1
2019-02-15T13:02:31.414Z,1
2019-02-15T13:07:33.827Z,1
2019-02-15T13:12:36.333Z,1
2019-02-15T13:17:38.852Z,1
2019-02-15T13:22:41.180Z,1
2019-02-15T13:27:43.700Z,1
2019-02-15T13:32:46.094Z,1
2019-02-15T13:37:48.582Z,1
2019-02-15T13:42:50.975Z,1
2019-02-15T13:47:53.521Z,1
2019-02-15T13:52:55.946Z,1
2019-02-15T13:57:58.357Z,1
2019-02-15T14:03:00.818Z,1
2019-02-15T14:08:03.275Z,1
2019-02-15T14:13:05.731Z,1
2019-02-15T14:18:08.207Z,1
2019-02-15T14:23:10.657Z,1
2019-02-15T14:28:13.111Z,1
2019-02-15T14:33:15.575Z,1
2019-02-15T14:38:18.041Z,1
2019-02-15T14:43:20.530Z,1
2019-02-15T14:48:22.943Z,1
2019-02-15T14:53:25.481Z,1
2019-02-15T14:58:27.863Z,1
2019-02-15T15:03:30.360Z,1
2019-02-15T15:08:33.127Z,1
2019-02-15T15:13:35.303Z,1
2019-02-15T15:18:37.757Z,1
2019-02-15T15:23:40.173Z,1
2019-02-15T15:28:42.603Z,1
2019-02-15T15:33:45.071Z,1
2019-02-15T15:38:47.652Z,1
2019-02-15T15:43:49.988Z,1
2019-02-15T15:48:52.446Z,1
2019-02-15T15:53:55.097Z,1
2019-02-15T15:58:57.338Z,1
2019-02-15T16:03:59.822Z,1
2019-02-15T16:09:02.321Z,1
2019-02-15T16:14:04.734Z,1
2019-02-15T16:19:07.285Z,1
2019-02-15T16:24:12.475Z,1
2019-02-15T16:29:13.906Z,1
2019-02-15T16:34:14.551Z,1
2019-02-15T16:39:17.007Z,1
2019-02-15T16:44:19.502Z,1
2019-02-15T16:49:21.984Z,1
2019-02-15T16:54:24.386Z,1
2019-02-15T16:59:26.844Z,1
2019-02-15T17:04:29.292Z,1
2019-02-15T17:09:31.762Z,1
2019-02-15T17:14:34.302Z,1
2019-02-15T17:19:36.669Z,1
2019-02-15T17:24:39.129Z,1
2019-02-15T17:29:41.587Z,1
2019-02-15T17:34:44.046Z,1
2019-02-15T17:39:46.562Z,1
2019-02-15T17:44:49.052Z,1
2019-02-15T17:49:51.446Z,1
2019-02-15T17:54:54.034Z,1
2019-02-15T17:59:56.337Z,1
2019-02-15T18:04:58.807Z,1
2019-02-15T18:10:01.341Z,1
2019-02-15T18:15:03.785Z,1
2019-02-15T18:20:06.228Z,1
2019-02-15T18:25:08.674Z,1
2019-02-15T18:30:11.077Z,1
2019-02-15T18:35:13.540Z,1
2019-02-15T18:40:15.994Z,1
2019-02-15T18:45:18.440Z,2.3
2019-02-15T18:50:20.966Z,1.3
2019-02-15T18:55:23.355Z,7.1
2019-02-15T19:00:25.881Z,5.9
2019-02-15T19:05:28.274Z,4.9
2019-02-15T19:10:30.766Z,6.7
2019-02-15T19:15:33.203Z,20
2019-02-15T19:20:35.664Z,0
2019-02-15T19:25:38.145Z,0
2019-02-15T19:30:40.611Z,0
2019-02-15T19:35:43.390Z,0
2019-02-15T19:40:45.569Z,0
2019-02-15T19:45:48.090Z,0
2019-02-15T19:50:50.547Z,0
2019-02-15T19:55:53.010Z,0
2019-02-15T20:00:55.540Z,0
2019-02-15T20:05:57.962Z,51.3
2019-02-15T20:11:00.421Z,33.3
2019-02-15T20:16:02.886Z,31.8
2019-02-15T20:21:05.387Z,26.8
2019-02-15T20:26:07.813Z,23.6
2019-02-15T20:31:10.266Z,32
2019-02-15T20:36:12.778Z,29.2
2019-02-15T20:41:15.218Z,38.2
2019-02-15T20:46:17.665Z,32.7
2019-02-15T20:51:20.134Z,39
2019-02-15T20:56:22.643Z,36.4
2019-02-15T21:01:25.061Z,37.2
2019-02-15T21:06:27.572Z,43.6
2019-02-15T21:11:30.047Z,44.9
2019-02-15T21:16:32.544Z,63.4
2019-02-15T21:21:34.918Z,72.7
2019-02-15T21:26:37.771Z,79.2
2019-02-15T21:31:39.854Z,99.9
2019-02-15T21:36:42.348Z,99.9
2019-02-15T21:41:44.793Z,99.9
2019-02-15T21:46:47.267Z,99.9
2019-02-15T21:51:49.716Z,99.9
2019-02-15T21:56:52.185Z,99.1
2019-02-15T22:01:54.653Z,98.4
2019-02-15T22:06:57.125Z,97.6
2019-02-15T22:11:59.585Z,99.7
2019-02-15T22:17:02.058Z,99.9
2019-02-15T22:22:04.487Z,99.9
2019-02-15T22:27:06.950Z,99.9
2019-02-15T22:32:09.420Z,99.9
2019-02-15T22:37:11.911Z,99.9
2019-02-15T22:42:14.336Z,0
2019-02-15T22:52:19.304Z,0
2019-02-15T22:57:21.786Z,0
2019-02-15T23:02:24.251Z,99.9
2019-02-15T23:07:26.690Z,99.9
2019-02-15T23:12:29.130Z,99.9
2019-02-15T23:17:31.637Z,99.9
2019-02-15T23:22:34.152Z,99.9
2019-02-15T23:27:36.560Z,99.9
2019-02-15T23:32:38.986Z,99.9
2019-02-15T23:37:41.443Z,99.9
2019-02-15T23:42:43.920Z,99.9
2019-02-15T23:47:46.397Z,99.9
2019-02-15T23:52:48.849Z,99.9
2019-02-15T23:57:51.297Z,99.9
